sensor_id;sensor_type;location;lat;lon;timestamp;P1;durP1;ratioP1;P2;durP2;ratioP2
69712;SDS011;56980;51.826;4.424;2022-07-06T00:02:20;4.00;;;0.80;;
69712;SDS011;56980;51.826;4.424;2022-07-06T00:04:45;2.03;;;0.90;;
69712;SDS011;56980;51.826;4.424;2022-07-06T00:07:11;1.30;;;0.77;;
69712;SDS011;56980;51.826;4.424;2022-07-06T00:09:36;1.43;;;1.03;;
69712;SDS011;56980;51.826;4.424;2022-07-06T00:12:01;2.10;;;0.77;;
69712;SDS011;56980;51.826;4.424;2022-07-06T00:14:27;6.43;;;1.00;;
69712;SDS011;56980;51.826;4.424;2022-07-06T00:16:52;5.27;;;0.90;;
69712;SDS011;56980;51.826;4.424;2022-07-06T00:19:17;3.40;;;0.87;;
69712;SDS011;56980;51.826;4.424;2022-07-06T00:21:43;2.07;;;0.80;;
69712;SDS011;56980;51.826;4.424;2022-07-06T00:24:08;4.37;;;0.90;;
69712;SDS011;56980;51.826;4.424;2022-07-06T00:26:34;1.70;;;0.60;;
69712;SDS011;56980;51.826;4.424;2022-07-06T00:28:59;3.27;;;0.80;;
69712;SDS011;56980;51.826;4.424;2022-07-06T00:31:24;1.38;;;0.60;;
69712;SDS011;56980;51.826;4.424;2022-07-06T00:33:50;2.97;;;1.10;;
69712;SDS011;56980;51.826;4.424;2022-07-06T00:36:15;4.93;;;0.80;;
69712;SDS011;56980;51.826;4.424;2022-07-06T00:38:41;1.70;;;0.82;;
69712;SDS011;56980;51.826;4.424;2022-07-06T00:41:06;1.90;;;0.70;;
69712;SDS011;56980;51.826;4.424;2022-07-06T00:43:48;2.43;;;0.80;;
69712;SDS011;56980;51.826;4.424;2022-07-06T00:46:21;1.83;;;0.70;;
69712;SDS011;56980;51.826;4.424;2022-07-06T00:48:50;1.40;;;0.80;;
69712;SDS011;56980;51.826;4.424;2022-07-06T00:51:15;3.37;;;1.00;;
69712;SDS011;56980;51.826;4.424;2022-07-06T00:53:41;2.70;;;0.70;;
69712;SDS011;56980;51.826;4.424;2022-07-06T00:56:07;1.52;;;0.70;;
69712;SDS011;56980;51.826;4.424;2022-07-06T00:58:34;3.58;;;1.20;;
69712;SDS011;56980;51.826;4.424;2022-07-06T01:00:59;3.50;;;0.93;;
69712;SDS011;56980;51.826;4.424;2022-07-06T01:03:25;4.60;;;0.70;;
69712;SDS011;56980;51.826;4.424;2022-07-06T01:05:50;3.25;;;0.70;;
69712;SDS011;56980;51.826;4.424;2022-07-06T01:08:16;1.35;;;0.52;;
69712;SDS011;56980;51.826;4.424;2022-07-06T01:10:41;1.80;;;0.73;;
69712;SDS011;56980;51.826;4.424;2022-07-06T01:13:07;3.40;;;0.80;;
69712;SDS011;56980;51.826;4.424;2022-07-06T01:15:32;3.63;;;0.70;;
69712;SDS011;56980;51.826;4.424;2022-07-06T01:17:58;3.53;;;1.07;;
69712;SDS011;56980;51.826;4.424;2022-07-06T01:20:25;3.45;;;1.00;;
69712;SDS011;56980;51.826;4.424;2022-07-06T01:22:52;4.10;;;0.77;;
69712;SDS011;56980;51.826;4.424;2022-07-06T01:25:19;2.45;;;0.85;;
69712;SDS011;56980;51.826;4.424;2022-07-06T01:27:45;1.40;;;0.88;;
69712;SDS011;56980;51.826;4.424;2022-07-06T01:30:11;2.10;;;0.70;;
69712;SDS011;56980;51.826;4.424;2022-07-06T01:32:40;4.78;;;0.80;;
69712;SDS011;56980;51.826;4.424;2022-07-06T01:35:06;2.55;;;0.90;;
69712;SDS011;56980;51.826;4.424;2022-07-06T01:37:35;2.97;;;0.80;;
69712;SDS011;56980;51.826;4.424;2022-07-06T01:40:01;3.53;;;0.80;;
69712;SDS011;56980;51.826;4.424;2022-07-06T01:42:29;5.13;;;1.40;;
69712;SDS011;56980;51.826;4.424;2022-07-06T01:44:54;4.20;;;1.00;;
69712;SDS011;56980;51.826;4.424;2022-07-06T01:47:20;2.25;;;0.60;;
69712;SDS011;56980;51.826;4.424;2022-07-06T01:49:45;3.93;;;0.83;;
69712;SDS011;56980;51.826;4.424;2022-07-06T01:52:10;1.27;;;0.80;;
69712;SDS011;56980;51.826;4.424;2022-07-06T01:54:36;2.17;;;0.82;;
69712;SDS011;56980;51.826;4.424;2022-07-06T01:57:02;2.70;;;0.80;;
69712;SDS011;56980;51.826;4.424;2022-07-06T01:59:27;1.73;;;0.70;;
69712;SDS011;56980;51.826;4.424;2022-07-06T02:01:52;5.13;;;0.90;;
69712;SDS011;56980;51.826;4.424;2022-07-06T02:04:18;2.50;;;1.00;;
69712;SDS011;56980;51.826;4.424;2022-07-06T02:06:43;1.53;;;0.80;;
69712;SDS011;56980;51.826;4.424;2022-07-06T02:09:08;2.83;;;0.90;;
69712;SDS011;56980;51.826;4.424;2022-07-06T02:11:34;3.57;;;0.90;;
69712;SDS011;56980;51.826;4.424;2022-07-06T02:13:59;4.03;;;1.20;;
69712;SDS011;56980;51.826;4.424;2022-07-06T02:16:25;2.43;;;0.87;;
69712;SDS011;56980;51.826;4.424;2022-07-06T02:18:50;3.78;;;1.17;;
69712;SDS011;56980;51.826;4.424;2022-07-06T02:21:15;4.20;;;0.90;;
69712;SDS011;56980;51.826;4.424;2022-07-06T02:23:41;4.20;;;0.80;;
69712;SDS011;56980;51.826;4.424;2022-07-06T02:26:06;1.20;;;0.70;;
69712;SDS011;56980;51.826;4.424;2022-07-06T02:28:31;4.00;;;1.37;;
69712;SDS011;56980;51.826;4.424;2022-07-06T02:30:57;2.88;;;0.90;;
69712;SDS011;56980;51.826;4.424;2022-07-06T02:33:22;3.40;;;0.77;;
69712;SDS011;56980;51.826;4.424;2022-07-06T02:35:48;4.63;;;1.07;;
69712;SDS011;56980;51.826;4.424;2022-07-06T02:38:13;4.87;;;0.70;;
69712;SDS011;56980;51.826;4.424;2022-07-06T02:40:39;2.30;;;0.67;;
69712;SDS011;56980;51.826;4.424;2022-07-06T02:43:04;1.90;;;0.82;;
69712;SDS011;56980;51.826;4.424;2022-07-06T02:45:30;1.13;;;0.73;;
69712;SDS011;56980;51.826;4.424;2022-07-06T02:47:56;2.08;;;0.77;;
69712;SDS011;56980;51.826;4.424;2022-07-06T02:50:22;2.15;;;0.70;;
69712;SDS011;56980;51.826;4.424;2022-07-06T02:52:48;1.50;;;0.68;;
69712;SDS011;56980;51.826;4.424;2022-07-06T02:55:13;1.20;;;0.80;;
69712;SDS011;56980;51.826;4.424;2022-07-06T02:57:39;3.70;;;0.80;;
69712;SDS011;56980;51.826;4.424;2022-07-06T03:00:04;2.97;;;0.83;;
69712;SDS011;56980;51.826;4.424;2022-07-06T03:02:30;1.60;;;0.73;;
69712;SDS011;56980;51.826;4.424;2022-07-06T03:04:56;2.10;;;0.93;;
69712;SDS011;56980;51.826;4.424;2022-07-06T03:07:22;2.95;;;1.00;;
69712;SDS011;56980;51.826;4.424;2022-07-06T03:09:47;2.37;;;1.00;;
69712;SDS011;56980;51.826;4.424;2022-07-06T03:12:13;2.03;;;1.10;;
69712;SDS011;56980;51.826;4.424;2022-07-06T03:14:38;3.53;;;1.00;;
69712;SDS011;56980;51.826;4.424;2022-07-06T03:17:03;2.40;;;0.70;;
69712;SDS011;56980;51.826;4.424;2022-07-06T03:19:29;5.33;;;0.80;;
69712;SDS011;56980;51.826;4.424;2022-07-06T03:21:54;1.47;;;0.90;;
69712;SDS011;56980;51.826;4.424;2022-07-06T03:24:19;2.97;;;1.03;;
69712;SDS011;56980;51.826;4.424;2022-07-06T03:26:45;1.40;;;0.77;;
69712;SDS011;56980;51.826;4.424;2022-07-06T03:29:10;5.67;;;1.10;;
69712;SDS011;56980;51.826;4.424;2022-07-06T03:31:35;1.73;;;0.70;;
69712;SDS011;56980;51.826;4.424;2022-07-06T03:34:01;2.70;;;0.80;;
69712;SDS011;56980;51.826;4.424;2022-07-06T03:36:26;2.67;;;0.70;;
69712;SDS011;56980;51.826;4.424;2022-07-06T03:38:51;1.40;;;0.70;;
69712;SDS011;56980;51.826;4.424;2022-07-06T03:41:17;2.10;;;1.10;;
69712;SDS011;56980;51.826;4.424;2022-07-06T03:43:42;2.67;;;0.80;;
69712;SDS011;56980;51.826;4.424;2022-07-06T03:46:08;3.60;;;0.90;;
69712;SDS011;56980;51.826;4.424;2022-07-06T03:48:33;2.20;;;0.82;;
69712;SDS011;56980;51.826;4.424;2022-07-06T03:50:59;2.80;;;0.80;;
69712;SDS011;56980;51.826;4.424;2022-07-06T03:53:25;3.03;;;0.87;;
69712;SDS011;56980;51.826;4.424;2022-07-06T03:55:51;1.88;;;0.80;;
69712;SDS011;56980;51.826;4.424;2022-07-06T03:58:35;2.25;;;1.00;;
69712;SDS011;56980;51.826;4.424;2022-07-06T04:01:00;1.97;;;0.73;;
69712;SDS011;56980;51.826;4.424;2022-07-06T04:03:26;4.93;;;1.97;;
69712;SDS011;56980;51.826;4.424;2022-07-06T04:05:51;3.07;;;1.00;;
69712;SDS011;56980;51.826;4.424;2022-07-06T04:08:17;3.10;;;1.20;;
69712;SDS011;56980;51.826;4.424;2022-07-06T04:10:42;1.27;;;0.87;;
69712;SDS011;56980;51.826;4.424;2022-07-06T04:13:08;2.30;;;0.83;;
69712;SDS011;56980;51.826;4.424;2022-07-06T04:15:33;2.17;;;0.80;;
69712;SDS011;56980;51.826;4.424;2022-07-06T04:17:58;1.47;;;0.80;;
69712;SDS011;56980;51.826;4.424;2022-07-06T04:20:24;1.33;;;0.90;;
69712;SDS011;56980;51.826;4.424;2022-07-06T04:22:51;1.50;;;0.90;;
69712;SDS011;56980;51.826;4.424;2022-07-06T04:25:17;1.35;;;0.80;;
69712;SDS011;56980;51.826;4.424;2022-07-06T04:27:43;0.97;;;0.80;;
69712;SDS011;56980;51.826;4.424;2022-07-06T04:30:09;1.03;;;0.77;;
69712;SDS011;56980;51.826;4.424;2022-07-06T04:32:35;2.17;;;0.88;;
69712;SDS011;56980;51.826;4.424;2022-07-06T04:35:01;1.23;;;0.80;;
69712;SDS011;56980;51.826;4.424;2022-07-06T04:37:26;2.40;;;1.10;;
69712;SDS011;56980;51.826;4.424;2022-07-06T04:39:52;2.77;;;0.93;;
69712;SDS011;56980;51.826;4.424;2022-07-06T04:42:18;3.53;;;1.07;;
69712;SDS011;56980;51.826;4.424;2022-07-06T04:44:43;1.70;;;0.90;;
69712;SDS011;56980;51.826;4.424;2022-07-06T04:47:10;11.53;;;2.70;;
69712;SDS011;56980;51.826;4.424;2022-07-06T04:49:36;2.13;;;1.27;;
69712;SDS011;56980;51.826;4.424;2022-07-06T04:52:01;2.23;;;0.80;;
69712;SDS011;56980;51.826;4.424;2022-07-06T04:54:26;2.23;;;0.80;;
69712;SDS011;56980;51.826;4.424;2022-07-06T04:56:52;2.80;;;0.70;;
69712;SDS011;56980;51.826;4.424;2022-07-06T04:59:17;4.33;;;0.73;;
69712;SDS011;56980;51.826;4.424;2022-07-06T05:01:42;1.38;;;0.80;;
69712;SDS011;56980;51.826;4.424;2022-07-06T05:04:08;1.88;;;0.80;;
69712;SDS011;56980;51.826;4.424;2022-07-06T05:06:33;2.90;;;0.70;;
69712;SDS011;56980;51.826;4.424;2022-07-06T05:08:59;6.65;;;0.80;;
69712;SDS011;56980;51.826;4.424;2022-07-06T05:11:25;1.70;;;0.60;;
69712;SDS011;56980;51.826;4.424;2022-07-06T05:13:51;3.00;;;0.60;;
69712;SDS011;56980;51.826;4.424;2022-07-06T05:16:17;2.27;;;0.80;;
69712;SDS011;56980;51.826;4.424;2022-07-06T05:18:42;2.30;;;0.77;;
69712;SDS011;56980;51.826;4.424;2022-07-06T05:21:07;0.70;;;0.53;;
69712;SDS011;56980;51.826;4.424;2022-07-06T05:23:33;3.30;;;0.60;;
69712;SDS011;56980;51.826;4.424;2022-07-06T05:25:58;2.70;;;0.80;;
69712;SDS011;56980;51.826;4.424;2022-07-06T05:28:23;1.00;;;0.67;;
69712;SDS011;56980;51.826;4.424;2022-07-06T05:30:49;1.50;;;0.60;;
69712;SDS011;56980;51.826;4.424;2022-07-06T05:33:14;2.03;;;0.77;;
69712;SDS011;56980;51.826;4.424;2022-07-06T05:35:39;2.80;;;0.60;;
69712;SDS011;56980;51.826;4.424;2022-07-06T05:38:05;2.47;;;0.70;;
69712;SDS011;56980;51.826;4.424;2022-07-06T05:40:30;2.90;;;0.80;;
69712;SDS011;56980;51.826;4.424;2022-07-06T05:42:55;1.53;;;0.90;;
69712;SDS011;56980;51.826;4.424;2022-07-06T05:45:21;1.47;;;0.60;;
69712;SDS011;56980;51.826;4.424;2022-07-06T05:47:47;1.65;;;0.68;;
69712;SDS011;56980;51.826;4.424;2022-07-06T05:50:32;1.38;;;0.90;;
69712;SDS011;56980;51.826;4.424;2022-07-06T05:52:58;2.10;;;0.80;;
69712;SDS011;56980;51.826;4.424;2022-07-06T05:55:25;1.90;;;0.70;;
69712;SDS011;56980;51.826;4.424;2022-07-06T05:57:51;1.42;;;0.90;;
69712;SDS011;56980;51.826;4.424;2022-07-06T06:00:18;1.40;;;0.70;;
69712;SDS011;56980;51.826;4.424;2022-07-06T06:02:44;2.37;;;0.70;;
69712;SDS011;56980;51.826;4.424;2022-07-06T06:05:10;1.87;;;0.63;;
69712;SDS011;56980;51.826;4.424;2022-07-06T06:07:39;0.98;;;0.60;;
69712;SDS011;56980;51.826;4.424;2022-07-06T06:10:05;3.10;;;0.82;;
69712;SDS011;56980;51.826;4.424;2022-07-06T06:12:33;4.32;;;0.70;;
69712;SDS011;56980;51.826;4.424;2022-07-06T06:14:58;5.77;;;1.10;;
69712;SDS011;56980;51.826;4.424;2022-07-06T06:17:24;2.00;;;0.60;;
69712;SDS011;56980;51.826;4.424;2022-07-06T06:19:49;1.33;;;0.60;;
69712;SDS011;56980;51.826;4.424;2022-07-06T06:22:15;3.60;;;0.70;;
69712;SDS011;56980;51.826;4.424;2022-07-06T06:24:40;3.30;;;0.70;;
69712;SDS011;56980;51.826;4.424;2022-07-06T06:27:06;2.33;;;0.60;;
69712;SDS011;56980;51.826;4.424;2022-07-06T06:29:31;3.90;;;0.80;;
69712;SDS011;56980;51.826;4.424;2022-07-06T06:31:57;4.13;;;0.70;;
69712;SDS011;56980;51.826;4.424;2022-07-06T06:34:23;2.40;;;0.57;;
69712;SDS011;56980;51.826;4.424;2022-07-06T06:36:48;2.25;;;0.50;;
69712;SDS011;56980;51.826;4.424;2022-07-06T06:39:13;7.25;;;0.70;;
69712;SDS011;56980;51.826;4.424;2022-07-06T06:41:39;1.53;;;0.73;;
69712;SDS011;56980;51.826;4.424;2022-07-06T06:44:04;1.43;;;0.57;;
69712;SDS011;56980;51.826;4.424;2022-07-06T06:46:30;1.43;;;0.60;;
69712;SDS011;56980;51.826;4.424;2022-07-06T06:48:55;6.10;;;0.97;;
69712;SDS011;56980;51.826;4.424;2022-07-06T06:51:20;1.33;;;0.67;;
69712;SDS011;56980;51.826;4.424;2022-07-06T06:53:46;2.00;;;0.60;;
69712;SDS011;56980;51.826;4.424;2022-07-06T06:56:12;1.35;;;0.47;;
69712;SDS011;56980;51.826;4.424;2022-07-06T06:58:37;3.23;;;0.80;;
69712;SDS011;56980;51.826;4.424;2022-07-06T07:01:03;4.00;;;0.60;;
69712;SDS011;56980;51.826;4.424;2022-07-06T07:03:29;1.67;;;0.70;;
69712;SDS011;56980;51.826;4.424;2022-07-06T07:05:55;3.43;;;0.60;;
69712;SDS011;56980;51.826;4.424;2022-07-06T07:08:20;1.87;;;0.53;;
69712;SDS011;56980;51.826;4.424;2022-07-06T07:10:45;1.97;;;0.70;;
69712;SDS011;56980;51.826;4.424;2022-07-06T07:13:11;3.08;;;0.77;;
69712;SDS011;56980;51.826;4.424;2022-07-06T07:15:36;2.15;;;0.70;;
69712;SDS011;56980;51.826;4.424;2022-07-06T07:18:01;0.63;;;0.40;;
69712;SDS011;56980;51.826;4.424;2022-07-06T07:20:26;5.50;;;0.70;;
69712;SDS011;56980;51.826;4.424;2022-07-06T07:22:54;3.03;;;0.98;;
69712;SDS011;56980;51.826;4.424;2022-07-06T07:25:20;5.37;;;0.63;;
69712;SDS011;56980;51.826;4.424;2022-07-06T07:27:45;1.60;;;0.50;;
69712;SDS011;56980;51.826;4.424;2022-07-06T07:30:11;3.00;;;0.70;;
69712;SDS011;56980;51.826;4.424;2022-07-06T07:32:36;0.80;;;0.60;;
69712;SDS011;56980;51.826;4.424;2022-07-06T07:35:02;2.20;;;0.60;;
69712;SDS011;56980;51.826;4.424;2022-07-06T07:37:28;1.65;;;0.68;;
69712;SDS011;56980;51.826;4.424;2022-07-06T07:39:53;1.70;;;0.87;;
69712;SDS011;56980;51.826;4.424;2022-07-06T07:42:19;2.20;;;0.60;;
69712;SDS011;56980;51.826;4.424;2022-07-06T07:44:44;1.13;;;0.70;;
69712;SDS011;56980;51.826;4.424;2022-07-06T07:47:10;1.90;;;0.60;;
69712;SDS011;56980;51.826;4.424;2022-07-06T07:49:35;1.10;;;0.70;;
69712;SDS011;56980;51.826;4.424;2022-07-06T07:52:00;1.93;;;0.70;;
69712;SDS011;56980;51.826;4.424;2022-07-06T07:54:26;1.30;;;0.50;;
69712;SDS011;56980;51.826;4.424;2022-07-06T07:56:51;2.33;;;0.67;;
69712;SDS011;56980;51.826;4.424;2022-07-06T07:59:16;2.55;;;0.50;;
69712;SDS011;56980;51.826;4.424;2022-07-06T08:01:42;2.88;;;0.60;;
69712;SDS011;56980;51.826;4.424;2022-07-06T08:04:07;2.83;;;0.50;;
69712;SDS011;56980;51.826;4.424;2022-07-06T08:06:32;6.60;;;1.33;;
69712;SDS011;56980;51.826;4.424;2022-07-06T08:08:58;5.87;;;0.73;;
69712;SDS011;56980;51.826;4.424;2022-07-06T08:11:24;3.00;;;0.90;;
69712;SDS011;56980;51.826;4.424;2022-07-06T08:13:49;1.20;;;0.60;;
69712;SDS011;56980;51.826;4.424;2022-07-06T08:16:14;1.43;;;0.60;;
69712;SDS011;56980;51.826;4.424;2022-07-06T08:18:40;3.13;;;0.50;;
69712;SDS011;56980;51.826;4.424;2022-07-06T08:21:05;3.00;;;0.60;;
69712;SDS011;56980;51.826;4.424;2022-07-06T08:23:31;1.60;;;0.60;;
69712;SDS011;56980;51.826;4.424;2022-07-06T08:25:59;2.17;;;0.57;;
69712;SDS011;56980;51.826;4.424;2022-07-06T08:28:25;2.55;;;0.50;;
69712;SDS011;56980;51.826;4.424;2022-07-06T08:30:50;5.27;;;0.60;;
69712;SDS011;56980;51.826;4.424;2022-07-06T08:33:16;2.57;;;0.60;;
69712;SDS011;56980;51.826;4.424;2022-07-06T08:35:41;0.80;;;0.60;;
69712;SDS011;56980;51.826;4.424;2022-07-06T08:38:06;3.30;;;0.70;;
69712;SDS011;56980;51.826;4.424;2022-07-06T08:40:35;1.83;;;1.10;;
69712;SDS011;56980;51.826;4.424;2022-07-06T08:43:03;5.22;;;0.70;;
69712;SDS011;56980;51.826;4.424;2022-07-06T08:45:29;4.13;;;0.70;;
69712;SDS011;56980;51.826;4.424;2022-07-06T08:47:57;1.95;;;0.75;;
69712;SDS011;56980;51.826;4.424;2022-07-06T08:50:28;1.25;;;0.60;;
69712;SDS011;56980;51.826;4.424;2022-07-06T08:52:53;1.43;;;0.70;;
69712;SDS011;56980;51.826;4.424;2022-07-06T08:55:19;1.20;;;0.70;;
69712;SDS011;56980;51.826;4.424;2022-07-06T08:57:46;3.47;;;0.70;;
69712;SDS011;56980;51.826;4.424;2022-07-06T09:00:12;3.70;;;0.70;;
69712;SDS011;56980;51.826;4.424;2022-07-06T09:02:39;0.90;;;0.55;;
69712;SDS011;56980;51.826;4.424;2022-07-06T09:05:05;1.63;;;0.60;;
69712;SDS011;56980;51.826;4.424;2022-07-06T09:07:33;4.07;;;0.68;;
69712;SDS011;56980;51.826;4.424;2022-07-06T09:09:59;2.92;;;0.60;;
69712;SDS011;56980;51.826;4.424;2022-07-06T09:12:26;1.88;;;0.63;;
69712;SDS011;56980;51.826;4.424;2022-07-06T09:14:55;4.95;;;0.68;;
69712;SDS011;56980;51.826;4.424;2022-07-06T09:17:24;5.17;;;0.77;;
69712;SDS011;56980;51.826;4.424;2022-07-06T09:19:52;3.25;;;0.70;;
69712;SDS011;56980;51.826;4.424;2022-07-06T09:24:51;3.25;;;0.80;;
69712;SDS011;56980;51.826;4.424;2022-07-06T09:27:17;8.25;;;0.60;;
69712;SDS011;56980;51.826;4.424;2022-07-06T09:29:42;3.93;;;0.70;;
69712;SDS011;56980;51.826;4.424;2022-07-06T09:32:09;1.20;;;0.60;;
69712;SDS011;56980;51.826;4.424;2022-07-06T09:34:42;0.97;;;0.60;;
69712;SDS011;56980;51.826;4.424;2022-07-06T09:37:08;0.98;;;0.50;;
69712;SDS011;56980;51.826;4.424;2022-07-06T09:39:34;1.77;;;0.70;;
69712;SDS011;56980;51.826;4.424;2022-07-06T09:42:01;3.55;;;0.80;;
69712;SDS011;56980;51.826;4.424;2022-07-06T09:44:35;2.63;;;0.63;;
69712;SDS011;56980;51.826;4.424;2022-07-06T09:47:06;2.93;;;0.70;;
69712;SDS011;56980;51.826;4.424;2022-07-06T09:49:33;0.90;;;0.60;;
69712;SDS011;56980;51.826;4.424;2022-07-06T09:52:02;1.83;;;0.60;;
69712;SDS011;56980;51.826;4.424;2022-07-06T09:54:30;4.30;;;0.80;;
69712;SDS011;56980;51.826;4.424;2022-07-06T09:56:57;1.60;;;0.60;;
69712;SDS011;56980;51.826;4.424;2022-07-06T09:59:23;2.50;;;0.60;;
69712;SDS011;56980;51.826;4.424;2022-07-06T10:01:51;1.67;;;0.57;;
69712;SDS011;56980;51.826;4.424;2022-07-06T10:04:17;1.75;;;0.60;;
69712;SDS011;56980;51.826;4.424;2022-07-06T10:06:45;1.73;;;0.50;;
69712;SDS011;56980;51.826;4.424;2022-07-06T10:09:11;1.50;;;0.80;;
69712;SDS011;56980;51.826;4.424;2022-07-06T10:11:45;2.40;;;0.80;;
69712;SDS011;56980;51.826;4.424;2022-07-06T10:14:14;1.13;;;0.60;;
69712;SDS011;56980;51.826;4.424;2022-07-06T10:16:42;3.40;;;0.70;;
69712;SDS011;56980;51.826;4.424;2022-07-06T10:19:09;1.47;;;0.60;;
69712;SDS011;56980;51.826;4.424;2022-07-06T10:21:35;2.10;;;0.70;;
69712;SDS011;56980;51.826;4.424;2022-07-06T10:24:02;1.03;;;0.80;;
69712;SDS011;56980;51.826;4.424;2022-07-06T10:26:29;2.20;;;0.80;;
69712;SDS011;56980;51.826;4.424;2022-07-06T10:28:58;3.83;;;0.70;;
69712;SDS011;56980;51.826;4.424;2022-07-06T10:31:24;4.20;;;0.82;;
69712;SDS011;56980;51.826;4.424;2022-07-06T10:33:51;3.00;;;0.85;;
69712;SDS011;56980;51.826;4.424;2022-07-06T10:36:18;2.67;;;0.70;;
69712;SDS011;56980;51.826;4.424;2022-07-06T10:38:46;1.70;;;0.85;;
69712;SDS011;56980;51.826;4.424;2022-07-06T10:41:14;3.00;;;0.90;;
69712;SDS011;56980;51.826;4.424;2022-07-06T10:43:43;2.00;;;0.77;;
69712;SDS011;56980;51.826;4.424;2022-07-06T10:46:16;3.65;;;0.80;;
69712;SDS011;56980;51.826;4.424;2022-07-06T10:48:44;3.80;;;0.80;;
69712;SDS011;56980;51.826;4.424;2022-07-06T10:51:10;2.80;;;0.80;;
69712;SDS011;56980;51.826;4.424;2022-07-06T10:53:38;1.85;;;0.80;;
69712;SDS011;56980;51.826;4.424;2022-07-06T10:56:05;3.63;;;0.90;;
69712;SDS011;56980;51.826;4.424;2022-07-06T10:58:48;3.72;;;0.70;;
69712;SDS011;56980;51.826;4.424;2022-07-06T11:01:19;2.20;;;1.10;;
69712;SDS011;56980;51.826;4.424;2022-07-06T11:03:49;6.63;;;1.00;;
69712;SDS011;56980;51.826;4.424;2022-07-06T11:06:33;1.98;;;0.60;;
69712;SDS011;56980;51.826;4.424;2022-07-06T11:09:02;1.60;;;0.80;;
69712;SDS011;56980;51.826;4.424;2022-07-06T11:13:58;1.60;;;0.70;;
69712;SDS011;56980;51.826;4.424;2022-07-06T11:16:26;3.25;;;0.80;;
69712;SDS011;56980;51.826;4.424;2022-07-06T11:19:00;1.35;;;0.70;;
69712;SDS011;56980;51.826;4.424;2022-07-06T11:24:07;1.52;;;0.80;;
69712;SDS011;56980;51.826;4.424;2022-07-06T11:26:35;2.00;;;0.77;;
69712;SDS011;56980;51.826;4.424;2022-07-06T11:29:02;3.88;;;0.90;;
69712;SDS011;56980;51.826;4.424;2022-07-06T11:31:29;2.72;;;0.80;;
69712;SDS011;56980;51.826;4.424;2022-07-06T11:33:55;2.97;;;0.80;;
69712;SDS011;56980;51.826;4.424;2022-07-06T11:36:21;2.67;;;0.77;;
69712;SDS011;56980;51.826;4.424;2022-07-06T11:38:48;1.27;;;0.80;;
69712;SDS011;56980;51.826;4.424;2022-07-06T11:41:15;3.58;;;0.88;;
69712;SDS011;56980;51.826;4.424;2022-07-06T11:43:45;1.10;;;0.90;;
69712;SDS011;56980;51.826;4.424;2022-07-06T11:46:44;1.80;;;0.80;;
69712;SDS011;56980;51.826;4.424;2022-07-06T11:49:07;2.20;;;0.90;;
69712;SDS011;56980;51.826;4.424;2022-07-06T11:51:37;2.13;;;0.87;;
69712;SDS011;56980;51.826;4.424;2022-07-06T11:54:07;1.58;;;1.13;;
69712;SDS011;56980;51.826;4.424;2022-07-06T11:59:23;3.22;;;0.98;;
69712;SDS011;56980;51.826;4.424;2022-07-06T12:04:25;2.67;;;0.83;;
69712;SDS011;56980;51.826;4.424;2022-07-06T12:06:51;2.45;;;1.10;;
69712;SDS011;56980;51.826;4.424;2022-07-06T12:09:16;2.03;;;0.90;;
69712;SDS011;56980;51.826;4.424;2022-07-06T12:11:43;4.27;;;1.00;;
69712;SDS011;56980;51.826;4.424;2022-07-06T12:14:20;4.78;;;1.05;;
69712;SDS011;56980;51.826;4.424;2022-07-06T12:16:47;6.07;;;0.93;;
69712;SDS011;56980;51.826;4.424;2022-07-06T12:19:14;1.48;;;0.80;;
69712;SDS011;56980;51.826;4.424;2022-07-06T12:21:47;4.45;;;0.90;;
69712;SDS011;56980;51.826;4.424;2022-07-06T12:24:20;5.97;;;1.25;;
69712;SDS011;56980;51.826;4.424;2022-07-06T12:26:52;2.85;;;1.20;;
69712;SDS011;56980;51.826;4.424;2022-07-06T12:29:18;3.13;;;0.90;;
69712;SDS011;56980;51.826;4.424;2022-07-06T12:31:54;2.63;;;1.15;;
69712;SDS011;56980;51.826;4.424;2022-07-06T12:34:21;3.10;;;0.88;;
69712;SDS011;56980;51.826;4.424;2022-07-06T12:36:55;2.60;;;1.00;;
69712;SDS011;56980;51.826;4.424;2022-07-06T12:39:26;2.85;;;1.02;;
69712;SDS011;56980;51.826;4.424;2022-07-06T12:44:26;2.63;;;0.82;;
69712;SDS011;56980;51.826;4.424;2022-07-06T12:47:16;4.55;;;1.40;;
69712;SDS011;56980;51.826;4.424;2022-07-06T12:49:37;5.05;;;1.08;;
69712;SDS011;56980;51.826;4.424;2022-07-06T12:54:33;6.20;;;0.98;;
69712;SDS011;56980;51.826;4.424;2022-07-06T12:57:10;6.20;;;1.13;;
69712;SDS011;56980;51.826;4.424;2022-07-06T13:02:19;3.88;;;1.15;;
69712;SDS011;56980;51.826;4.424;2022-07-06T13:05:02;4.27;;;1.20;;
69712;SDS011;56980;51.826;4.424;2022-07-06T13:07:29;4.35;;;1.30;;
69712;SDS011;56980;51.826;4.424;2022-07-06T13:10:00;3.97;;;1.30;;
69712;SDS011;56980;51.826;4.424;2022-07-06T13:12:28;5.95;;;1.08;;
69712;SDS011;56980;51.826;4.424;2022-07-06T13:14:53;2.40;;;0.93;;
69712;SDS011;56980;51.826;4.424;2022-07-06T13:17:19;4.60;;;1.15;;
69712;SDS011;56980;51.826;4.424;2022-07-06T13:19:45;3.07;;;1.20;;
69712;SDS011;56980;51.826;4.424;2022-07-06T13:22:10;5.87;;;1.00;;
69712;SDS011;56980;51.826;4.424;2022-07-06T13:24:35;4.30;;;1.55;;
69712;SDS011;56980;51.826;4.424;2022-07-06T13:27:01;4.63;;;1.27;;
69712;SDS011;56980;51.826;4.424;2022-07-06T13:29:27;3.28;;;1.08;;
69712;SDS011;56980;51.826;4.424;2022-07-06T13:31:52;3.10;;;1.23;;
69712;SDS011;56980;51.826;4.424;2022-07-06T13:34:18;3.87;;;1.40;;
69712;SDS011;56980;51.826;4.424;2022-07-06T13:36:44;3.17;;;1.13;;
69712;SDS011;56980;51.826;4.424;2022-07-06T13:39:11;2.53;;;1.20;;
69712;SDS011;56980;51.826;4.424;2022-07-06T13:41:36;3.80;;;1.20;;
69712;SDS011;56980;51.826;4.424;2022-07-06T13:44:02;3.73;;;1.07;;
69712;SDS011;56980;51.826;4.424;2022-07-06T13:46:28;8.60;;;1.20;;
69712;SDS011;56980;51.826;4.424;2022-07-06T13:48:54;2.75;;;0.93;;
69712;SDS011;56980;51.826;4.424;2022-07-06T13:51:21;4.03;;;1.20;;
69712;SDS011;56980;51.826;4.424;2022-07-06T13:53:47;5.33;;;1.00;;
69712;SDS011;56980;51.826;4.424;2022-07-06T13:56:12;4.47;;;1.20;;
69712;SDS011;56980;51.826;4.424;2022-07-06T13:58:38;2.90;;;1.30;;
69712;SDS011;56980;51.826;4.424;2022-07-06T14:01:03;4.90;;;1.38;;
69712;SDS011;56980;51.826;4.424;2022-07-06T14:03:29;3.92;;;1.00;;
69712;SDS011;56980;51.826;4.424;2022-07-06T14:05:58;5.37;;;1.40;;
69712;SDS011;56980;51.826;4.424;2022-07-06T14:08:25;2.17;;;1.23;;
69712;SDS011;56980;51.826;4.424;2022-07-06T14:10:51;4.28;;;1.20;;
69712;SDS011;56980;51.826;4.424;2022-07-06T14:13:18;2.40;;;1.17;;
69712;SDS011;56980;51.826;4.424;2022-07-06T14:15:44;7.03;;;1.40;;
69712;SDS011;56980;51.826;4.424;2022-07-06T14:18:10;6.13;;;1.30;;
69712;SDS011;56980;51.826;4.424;2022-07-06T14:20:35;3.93;;;1.20;;
69712;SDS011;56980;51.826;4.424;2022-07-06T14:23:00;3.73;;;1.20;;
69712;SDS011;56980;51.826;4.424;2022-07-06T14:25:26;5.75;;;1.52;;
69712;SDS011;56980;51.826;4.424;2022-07-06T14:27:51;3.50;;;1.40;;
69712;SDS011;56980;51.826;4.424;2022-07-06T14:30:17;3.53;;;1.60;;
69712;SDS011;56980;51.826;4.424;2022-07-06T14:32:42;3.37;;;1.90;;
69712;SDS011;56980;51.826;4.424;2022-07-06T14:35:09;8.80;;;2.05;;
69712;SDS011;56980;51.826;4.424;2022-07-06T14:37:35;7.68;;;2.45;;
69712;SDS011;56980;51.826;4.424;2022-07-06T14:40:00;5.43;;;2.00;;
69712;SDS011;56980;51.826;4.424;2022-07-06T14:42:26;4.50;;;2.50;;
69712;SDS011;56980;51.826;4.424;2022-07-06T14:44:51;9.97;;;1.87;;
69712;SDS011;56980;51.826;4.424;2022-07-06T14:47:16;6.43;;;2.27;;
69712;SDS011;56980;51.826;4.424;2022-07-06T14:49:42;6.35;;;1.80;;
69712;SDS011;56980;51.826;4.424;2022-07-06T14:52:07;4.70;;;1.87;;
69712;SDS011;56980;51.826;4.424;2022-07-06T14:54:34;4.40;;;1.50;;
69712;SDS011;56980;51.826;4.424;2022-07-06T14:57:01;6.20;;;1.58;;
69712;SDS011;56980;51.826;4.424;2022-07-06T14:59:28;4.70;;;1.58;;
69712;SDS011;56980;51.826;4.424;2022-07-06T15:01:53;5.50;;;1.80;;
69712;SDS011;56980;51.826;4.424;2022-07-06T15:04:18;6.43;;;2.10;;
69712;SDS011;56980;51.826;4.424;2022-07-06T15:06:44;4.07;;;1.93;;